Weather at Ermelo Airport

Public forecast

Using degrees Celsius for public forecast. Weather courtesy of forecast.io.

Current aviation weather report (METAR) for Ermelo Airport

Retrieved 2020/12/01 11:40 UTC (0 seconds ago):

FAEO 011140Z 24011KT 9999 TS SCT030TCU FEW040CB BKN060 23/12 Q1017

Aviation forecast (TAF) for Ermelo Airport

Forecast is more than 12 hours old.

Retrieved 2017/06/05 04:55 UTC (3 years ago):

TAF FAEO 050300Z 0504/0515 09006KT CAVOK TX18/0513ZTN05/0504Z